createdAt,value
2018-11-01T00:00:22.218Z,11.50
2018-11-01T00:02:51.587Z,11.12
2018-11-01T00:05:20.912Z,11.43
2018-11-01T00:07:50.278Z,12.20
2018-11-01T00:10:19.601Z,11.83
2018-11-01T00:12:49.001Z,11.20
2018-11-01T00:15:19.145Z,9.68
2018-11-01T00:17:48.574Z,10.78
2018-11-01T00:20:17.988Z,10.55
2018-11-01T00:22:47.466Z,10.82
2018-11-01T00:25:16.853Z,11.70
2018-11-01T00:27:46.251Z,11.12
2018-11-01T00:30:15.648Z,10.80
2018-11-01T00:32:45.011Z,11.15
2018-11-01T00:35:14.373Z,10.65
2018-11-01T00:37:43.758Z,11.00
2018-11-01T00:40:14.683Z,10.90
2018-11-01T00:42:45.041Z,10.53
2018-11-01T00:45:14.464Z,9.08
2018-11-01T00:47:43.823Z,10.38
2018-11-01T00:50:14.427Z,10.38
2018-11-01T00:52:44.144Z,9.93
2018-11-01T00:55:14.139Z,8.93
2018-11-01T00:57:43.840Z,9.88
2018-11-01T01:00:15.147Z,10.00
2018-11-01T01:02:44.575Z,9.10
2018-11-01T01:05:14.028Z,10.18
2018-11-01T01:07:43.416Z,10.20
2018-11-01T01:10:16.438Z,9.33
2018-11-01T01:12:47.405Z,9.73
2018-11-01T01:15:16.818Z,9.85
2018-11-01T01:17:46.185Z,9.83
2018-11-01T01:20:16.600Z,10.63
2018-11-01T01:22:46.849Z,10.43
2018-11-01T01:25:17.501Z,9.90
2018-11-01T01:27:46.881Z,9.85
2018-11-01T01:30:20.687Z,9.85
2018-11-01T01:32:50.714Z,9.95
2018-11-01T01:35:20.130Z,10.32
2018-11-01T01:37:49.498Z,9.85
2018-11-01T01:40:18.901Z,9.80
2018-11-01T01:42:53.423Z,9.15
2018-11-01T01:45:23.739Z,9.85
2018-11-01T01:47:53.151Z,10.13
2018-11-01T01:50:22.614Z,9.75
2018-11-01T01:52:51.941Z,9.45
2018-11-01T01:55:21.323Z,10.30
2018-11-01T01:57:50.728Z,9.65
2018-11-01T02:00:21.001Z,9.65
2018-11-01T02:02:51.539Z,9.35
2018-11-01T02:05:20.936Z,8.33
2018-11-01T02:07:50.281Z,9.65
2018-11-01T02:10:19.783Z,9.83
2018-11-01T02:12:49.130Z,9.70
2018-11-01T02:15:19.956Z,9.65
2018-11-01T02:17:49.462Z,10.03
2018-11-01T02:20:20.079Z,8.50
2018-11-01T02:22:49.687Z,10.43
2018-11-01T02:25:19.217Z,9.23
2018-11-01T02:27:53.924Z,9.90
2018-11-01T02:30:23.336Z,9.33
2018-11-01T02:32:52.725Z,10.75
2018-11-01T02:35:22.155Z,10.30
2018-11-01T02:37:51.738Z,9.98
2018-11-01T02:40:21.257Z,10.25
2018-11-01T02:42:50.747Z,10.30
2018-11-01T02:45:20.248Z,10.10
2018-11-01T02:47:49.708Z,9.63
2018-11-01T02:50:19.070Z,9.98
2018-11-01T02:52:48.488Z,10.20
2018-11-01T02:55:17.876Z,9.68
2018-11-01T02:57:47.272Z,10.65
2018-11-01T03:00:17.369Z,9.58
2018-11-01T03:02:46.768Z,9.38
2018-11-01T03:05:16.183Z,9.00
2018-11-01T03:07:45.573Z,10.45
2018-11-01T03:10:15.538Z,10.10
2018-11-01T03:12:44.942Z,10.13
2018-11-01T03:15:15.372Z,9.95
2018-11-01T03:17:44.732Z,10.32
2018-11-01T03:20:14.267Z,10.40
2018-11-01T03:22:43.691Z,9.78
2018-11-01T03:25:13.065Z,10.00
2018-11-01T03:27:42.459Z,10.50
2018-11-01T03:33:22.325Z,9.45
2018-11-01T03:35:51.857Z,8.93
2018-11-01T03:38:21.470Z,10.50
2018-11-01T03:40:50.774Z,10.00
2018-11-01T03:43:20.234Z,10.30
2018-11-01T03:45:49.743Z,9.85
2018-11-01T03:48:19.095Z,8.93
2018-11-01T03:50:48.499Z,10.03
2018-11-01T03:53:17.956Z,8.30
2018-11-01T03:55:47.502Z,9.88
2018-11-01T03:58:16.922Z,9.03
2018-11-01T04:00:46.323Z,9.55
2018-11-01T04:03:15.715Z,9.93
2018-11-01T04:05:45.211Z,8.70
2018-11-01T04:08:14.675Z,9.10
2018-11-01T04:10:44.196Z,9.23
2018-11-01T04:13:13.650Z,9.30
2018-11-01T04:15:43.137Z,9.43
2018-11-01T04:18:12.471Z,9.10
2018-11-01T04:20:41.887Z,10.43
2018-11-01T04:23:11.376Z,10.15
2018-11-01T04:25:40.887Z,8.88
2018-11-01T04:28:10.239Z,9.80
2018-11-01T04:30:39.955Z,9.25
2018-11-01T04:33:09.932Z,10.25
2018-11-01T04:35:39.357Z,10.15
2018-11-01T04:38:08.790Z,11.55
2018-11-01T04:40:38.318Z,10.65
2018-11-01T04:43:07.667Z,10.68
2018-11-01T04:45:37.891Z,11.70
2018-11-01T04:48:07.473Z,11.35
2018-11-01T04:50:36.879Z,9.65
2018-11-01T04:53:06.473Z,10.30
2018-11-01T04:55:35.862Z,11.18
2018-11-01T04:58:05.394Z,11.48
2018-11-01T05:00:34.830Z,10.15
2018-11-01T05:03:04.209Z,10.08
2018-11-01T05:05:33.684Z,10.00
2018-11-01T05:08:03.094Z,9.85
2018-11-01T05:10:32.578Z,10.28
2018-11-01T05:13:02.058Z,9.88
2018-11-01T05:15:31.525Z,9.95
2018-11-01T05:18:04.219Z,9.70
2018-11-01T05:20:33.763Z,11.35
2018-11-01T05:23:03.295Z,10.15
2018-11-01T05:25:32.811Z,14.07
2018-11-01T05:28:02.372Z,14.33
2018-11-01T05:30:31.771Z,14.10
2018-11-01T05:33:01.365Z,15.90
2018-11-01T05:35:34.664Z,15.00
2018-11-01T05:38:06.455Z,16.95
2018-11-01T05:40:39.152Z,15.98
2018-11-01T05:43:11.953Z,16.90
2018-11-01T05:45:41.841Z,16.20
2018-11-01T05:48:12.492Z,17.20
2018-11-01T05:50:43.721Z,16.27
2018-11-01T05:53:14.766Z,15.98
2018-11-01T05:55:44.451Z,16.55
2018-11-01T05:58:17.076Z,16.07
2018-11-01T06:00:46.656Z,15.63
2018-11-01T06:03:16.493Z,15.43
2018-11-01T06:05:46.556Z,15.95
2018-11-01T06:08:23.352Z,17.77
2018-11-01T06:10:53.004Z,13.93
2018-11-01T06:13:22.435Z,16.37
2018-11-01T06:15:51.960Z,15.93
2018-11-01T06:18:21.285Z,17.75
2018-11-01T06:20:50.658Z,15.23
2018-11-01T06:23:20.150Z,16.93
2018-11-01T06:25:49.654Z,16.23
2018-11-01T06:28:19.192Z,17.35
2018-11-01T06:30:48.581Z,17.52
2018-11-01T06:33:18.629Z,17.00
2018-11-01T06:35:58.167Z,16.32
2018-11-01T06:38:35.877Z,16.23
2018-11-01T06:44:06.786Z,15.60
2018-11-01T06:46:36.321Z,15.95
2018-11-01T06:49:06.667Z,15.18
2018-11-01T06:51:36.060Z,14.20
2018-11-01T06:54:06.200Z,13.28
2018-11-01T06:56:35.638Z,16.42
2018-11-01T06:59:05.287Z,15.58
2018-11-01T07:01:34.553Z,14.95
2018-11-01T07:04:04.017Z,16.27
2018-11-01T07:06:33.471Z,16.75
2018-11-01T07:09:03.047Z,15.20
2018-11-01T07:11:32.464Z,14.10
2018-11-01T07:14:01.851Z,14.33
2018-11-01T07:16:31.303Z,14.40
2018-11-01T07:19:00.755Z,15.93
2018-11-01T07:21:30.251Z,16.32
2018-11-01T07:23:59.770Z,16.57
2018-11-01T07:26:29.420Z,16.15
2018-11-01T07:28:58.830Z,16.05
2018-11-01T07:31:28.460Z,15.50
2018-11-01T07:33:58.601Z,16.25
2018-11-01T07:36:27.959Z,14.20
2018-11-01T07:38:57.362Z,14.85
2018-11-01T07:41:26.819Z,14.53
2018-11-01T07:43:56.279Z,13.90
2018-11-01T07:46:25.761Z,15.85
2018-11-01T07:48:55.168Z,15.60
2018-11-01T07:51:24.523Z,16.87
2018-11-01T07:53:53.982Z,13.25
2018-11-01T07:56:23.339Z,12.98
2018-11-01T07:58:52.775Z,14.55
2018-11-01T08:01:22.234Z,12.75
2018-11-01T08:03:51.799Z,12.90
2018-11-01T08:06:21.275Z,12.15
2018-11-01T08:08:50.707Z,11.97
2018-11-01T08:11:20.196Z,12.90
2018-11-01T08:13:49.674Z,13.10
2018-11-01T08:16:19.353Z,13.43
2018-11-01T08:18:48.992Z,14.43
2018-11-01T08:21:18.669Z,11.83
2018-11-01T08:23:48.061Z,12.23
2018-11-01T08:26:17.534Z,12.03
2018-11-01T08:28:47.041Z,11.95
2018-11-01T08:31:16.434Z,10.72
2018-11-01T08:33:45.824Z,11.50
2018-11-01T08:36:15.293Z,10.68
2018-11-01T08:38:44.716Z,10.85
2018-11-01T08:41:14.135Z,10.98
2018-11-01T08:43:43.553Z,11.90
2018-11-01T08:46:13.147Z,12.23
2018-11-01T08:48:42.621Z,9.90
2018-11-01T08:51:12.192Z,10.32
2018-11-01T08:53:41.640Z,10.20
2018-11-01T08:56:11.084Z,9.98
2018-11-01T08:58:40.551Z,10.08
2018-11-01T09:01:10.008Z,8.98
2018-11-01T09:03:39.399Z,10.60
2018-11-01T09:06:08.893Z,8.88
2018-11-01T09:08:38.207Z,8.75
2018-11-01T09:11:07.568Z,9.03
2018-11-01T09:13:36.963Z,8.75
2018-11-01T09:16:06.514Z,8.00
2018-11-01T09:18:36.422Z,8.70
2018-11-01T09:21:05.957Z,7.60
2018-11-01T09:23:35.505Z,8.30
2018-11-01T09:26:05.084Z,9.40
2018-11-01T09:28:34.558Z,8.65
2018-11-01T09:31:04.067Z,9.13
2018-11-01T09:33:33.624Z,9.85
2018-11-01T09:36:03.891Z,12.13
2018-11-01T09:38:33.301Z,10.03
2018-11-01T09:41:02.861Z,9.13
2018-11-01T09:43:32.310Z,9.58
2018-11-01T09:46:01.915Z,8.53
2018-11-01T09:48:31.307Z,8.88
2018-11-01T09:51:01.071Z,8.40
2018-11-01T09:53:30.489Z,8.35
2018-11-01T09:55:59.901Z,7.22
2018-11-01T09:58:29.601Z,7.97
2018-11-01T10:00:59.212Z,7.87
2018-11-01T10:03:28.871Z,8.00
2018-11-01T10:05:58.395Z,8.18
2018-11-01T10:08:27.939Z,8.00
2018-11-01T10:10:57.421Z,8.30
2018-11-01T10:13:27.661Z,9.30
2018-11-01T10:15:57.374Z,9.73
2018-11-01T10:18:27.060Z,9.63
2018-11-01T10:20:56.022Z,10.25
2018-11-01T10:23:25.537Z,11.00
2018-11-01T10:25:55.195Z,10.98
2018-11-01T10:28:24.641Z,10.88
2018-11-01T10:30:54.213Z,11.15
2018-11-01T10:33:23.605Z,11.30
2018-11-01T10:35:53.795Z,10.85
2018-11-01T10:38:23.218Z,10.75
2018-11-01T10:40:52.698Z,10.48
2018-11-01T10:43:22.134Z,11.05
2018-11-01T10:45:51.509Z,11.35
2018-11-01T10:48:20.909Z,11.00
2018-11-01T10:50:50.689Z,11.48
2018-11-01T10:53:20.198Z,10.98
2018-11-01T10:55:49.744Z,10.93
2018-11-01T10:58:19.177Z,10.63
2018-11-01T11:00:53.877Z,10.50
2018-11-01T11:03:23.192Z,10.25
2018-11-01T11:05:53.366Z,10.25
2018-11-01T11:08:23.045Z,10.08
2018-11-01T11:10:52.939Z,8.88
2018-11-01T11:13:22.483Z,9.10
2018-11-01T11:15:51.983Z,9.05
2018-11-01T11:18:21.396Z,9.60
2018-11-01T11:20:51.110Z,10.10
2018-11-01T11:23:21.024Z,9.58
2018-11-01T11:25:50.601Z,9.03
2018-11-01T11:28:20.105Z,9.15
2018-11-01T11:30:49.573Z,9.63
2018-11-01T11:33:19.006Z,8.90
2018-11-01T11:35:48.609Z,8.98
2018-11-01T11:38:17.994Z,9.00
2018-11-01T11:40:47.548Z,9.10
2018-11-01T11:43:17.036Z,9.40
2018-11-01T11:45:46.536Z,9.83
2018-11-01T11:48:16.084Z,8.93
2018-11-01T11:50:45.604Z,9.13
2018-11-01T11:53:14.962Z,9.03
2018-11-01T11:55:45.376Z,9.48
2018-11-01T11:58:14.755Z,7.65
2018-11-01T12:00:44.366Z,9.58
2018-11-01T12:03:14.599Z,9.00
2018-11-01T12:05:44.881Z,8.98
2018-11-01T12:08:14.493Z,9.05
2018-11-01T12:10:44.019Z,9.00
2018-11-01T12:13:13.525Z,9.75
2018-11-01T12:15:43.141Z,10.18
2018-11-01T12:18:13.480Z,8.90
2018-11-01T12:20:51.175Z,7.28
2018-11-01T12:23:20.688Z,5.33
2018-11-01T12:25:50.501Z,4.67
2018-11-01T12:28:20.010Z,4.28
2018-11-01T12:30:49.863Z,4.30
2018-11-01T12:33:19.363Z,4.30
2018-11-01T12:35:48.804Z,4.05
2018-11-01T12:38:18.256Z,3.08
2018-11-01T12:40:47.652Z,3.17
2018-11-01T12:43:17.130Z,2.90
2018-11-01T12:45:46.561Z,3.50
2018-11-01T12:48:16.103Z,2.83
2018-11-01T12:50:45.511Z,3.15
2018-11-01T12:53:14.941Z,2.70
2018-11-01T12:55:44.511Z,2.58
2018-11-01T12:58:13.955Z,2.70
2018-11-01T13:00:43.459Z,3.20
2018-11-01T13:03:13.225Z,3.30
2018-11-01T13:05:43.099Z,2.72
2018-11-01T13:08:12.494Z,3.20
2018-11-01T13:10:43.010Z,3.20
2018-11-01T13:13:12.426Z,3.27
2018-11-01T13:15:41.873Z,2.75
2018-11-01T13:18:11.405Z,2.92
2018-11-01T13:20:41.192Z,3.30
2018-11-01T13:23:10.674Z,3.60
2018-11-01T13:25:40.319Z,3.05
2018-11-01T13:28:09.722Z,3.40
2018-11-01T13:30:43.005Z,3.12
2018-11-01T13:33:12.557Z,3.40
2018-11-01T13:35:42.128Z,3.55
2018-11-01T13:38:11.676Z,3.40
2018-11-01T13:40:41.498Z,3.20
2018-11-01T13:43:10.801Z,3.42
2018-11-01T13:45:40.640Z,3.55
2018-11-01T13:48:10.380Z,3.22
2018-11-01T13:50:39.946Z,3.45
2018-11-01T13:53:09.689Z,3.10
2018-11-01T13:55:39.554Z,3.52
2018-11-01T13:58:09.069Z,3.85
2018-11-01T14:00:38.551Z,3.10
2018-11-01T14:03:08.333Z,4.83
2018-11-01T14:05:38.254Z,3.33
2018-11-01T14:08:08.068Z,3.27
2018-11-01T14:10:38.122Z,3.55
2018-11-01T14:13:08.144Z,3.00
2018-11-01T14:15:37.908Z,3.80
2018-11-01T14:18:07.812Z,3.50
2018-11-01T14:20:37.393Z,3.60
2018-11-01T14:23:07.320Z,4.00
2018-11-01T14:25:36.958Z,3.52
2018-11-01T14:28:06.675Z,3.72
2018-11-01T14:30:36.222Z,4.12
2018-11-01T14:33:05.844Z,4.45
2018-11-01T14:35:35.545Z,3.92
2018-11-01T14:38:05.717Z,4.33
2018-11-01T14:40:35.013Z,4.17
2018-11-01T14:43:04.467Z,3.92
2018-11-01T14:45:33.994Z,3.85
2018-11-01T14:48:05.939Z,3.72
2018-11-01T14:50:35.543Z,4.85
2018-11-01T14:53:06.251Z,3.98
2018-11-01T14:55:36.528Z,4.00
2018-11-01T14:58:05.770Z,4.30
2018-11-01T15:00:33.970Z,4.45
2018-11-01T15:03:03.535Z,3.75
2018-11-01T15:05:33.002Z,4.42
2018-11-01T15:08:02.412Z,4.33
2018-11-01T15:10:31.787Z,4.58
2018-11-01T15:13:01.253Z,4.87
2018-11-01T15:15:30.630Z,5.30
2018-11-01T15:18:00.179Z,3.70
2018-11-01T15:20:29.658Z,4.25
2018-11-01T15:22:59.168Z,4.22
2018-11-01T15:25:28.757Z,5.30
2018-11-01T15:27:58.699Z,4.30
2018-11-01T15:30:28.131Z,3.75
2018-11-01T15:32:57.805Z,4.15
2018-11-01T15:35:27.444Z,4.10
2018-11-01T15:37:57.032Z,4.97
2018-11-01T15:40:27.545Z,4.20
2018-11-01T15:42:58.105Z,4.15
2018-11-01T15:45:27.610Z,3.80
2018-11-01T15:48:00.951Z,3.83
2018-11-01T15:50:30.440Z,4.35
2018-11-01T15:52:59.837Z,4.28
2018-11-01T15:55:29.304Z,4.03
2018-11-01T15:57:59.545Z,4.22
2018-11-01T16:00:29.007Z,4.78
2018-11-01T16:02:58.505Z,4.08
2018-11-01T16:05:28.076Z,4.50
2018-11-01T16:07:57.541Z,5.10
2018-11-01T16:10:27.094Z,4.35
2018-11-01T16:12:56.556Z,4.67
2018-11-01T16:15:26.004Z,5.00
2018-11-01T16:17:55.442Z,4.62
2018-11-01T16:20:25.033Z,6.08
2018-11-01T16:22:54.448Z,5.45
2018-11-01T16:25:24.001Z,6.08
2018-11-01T16:27:53.477Z,5.75
2018-11-01T16:30:23.560Z,6.37
2018-11-01T16:32:53.482Z,5.92
2018-11-01T16:35:22.894Z,6.55
2018-11-01T16:37:52.406Z,7.30
2018-11-01T16:40:22.647Z,7.47
2018-11-01T16:42:52.492Z,8.30
2018-11-01T16:45:22.007Z,9.35
2018-11-01T16:47:51.448Z,9.38
2018-11-01T16:50:21.120Z,8.48
2018-11-01T16:52:50.670Z,8.48
2018-11-01T16:55:20.182Z,8.15
2018-11-01T16:57:49.680Z,6.65
2018-11-01T17:00:19.571Z,6.70
2018-11-01T17:02:50.047Z,6.70
2018-11-01T17:05:19.437Z,8.35
2018-11-01T17:07:48.821Z,9.85
2018-11-01T17:10:18.376Z,8.95
2018-11-01T17:12:47.792Z,9.50
2018-11-01T17:15:17.344Z,9.63
2018-11-01T17:17:46.633Z,8.85
2018-11-01T17:20:16.343Z,12.07
2018-11-01T17:22:45.740Z,10.80
2018-11-01T17:25:15.181Z,9.80
2018-11-01T17:27:44.634Z,8.48
2018-11-01T17:30:15.562Z,8.30
2018-11-01T17:32:53.036Z,7.85
2018-11-01T17:35:22.434Z,7.62
2018-11-01T17:37:51.953Z,8.58
2018-11-01T17:40:21.378Z,10.13
2018-11-01T17:42:50.810Z,9.05
2018-11-01T17:45:20.260Z,9.15
2018-11-01T17:47:49.762Z,8.23
2018-11-01T17:50:19.689Z,7.70
2018-11-01T17:52:49.172Z,8.70
2018-11-01T17:55:18.620Z,8.03
2018-11-01T17:57:48.032Z,7.72
2018-11-01T18:00:17.845Z,7.60
2018-11-01T18:02:47.694Z,8.68
2018-11-01T18:05:18.899Z,8.95
2018-11-01T18:07:48.344Z,8.98
2018-11-01T18:10:17.702Z,14.23
2018-11-01T18:12:47.139Z,13.83
2018-11-01T18:15:16.796Z,20.12
2018-11-01T18:17:46.295Z,13.95
2018-11-01T18:20:15.834Z,10.75
2018-11-01T18:22:45.533Z,9.58
2018-11-01T18:25:16.955Z,9.93
2018-11-01T18:27:46.900Z,9.60
2018-11-01T18:30:18.033Z,16.07
2018-11-01T18:32:48.707Z,24.45
2018-11-01T18:38:04.461Z,24.82
2018-11-01T18:40:35.890Z,23.18
2018-11-01T18:43:07.007Z,20.72
2018-11-01T18:45:38.035Z,20.95
2018-11-01T18:48:08.736Z,19.12
2018-11-01T18:50:41.580Z,20.32
2018-11-01T18:53:11.175Z,18.85
2018-11-01T18:55:40.800Z,19.20
2018-11-01T18:58:10.212Z,19.20
2018-11-01T19:00:39.658Z,19.92
2018-11-01T19:03:09.159Z,17.40
2018-11-01T19:05:38.798Z,15.40
2018-11-01T19:08:08.260Z,16.12
2018-11-01T19:10:37.746Z,16.37
2018-11-01T19:13:07.175Z,16.82
2018-11-01T19:15:36.970Z,16.62
2018-11-01T19:18:07.037Z,15.95
2018-11-01T19:20:36.528Z,15.48
2018-11-01T19:23:08.301Z,17.05
2018-11-01T19:25:37.875Z,17.62
2018-11-01T19:28:07.468Z,17.20
2018-11-01T19:30:36.902Z,14.15
2018-11-01T19:33:06.577Z,8.05
2018-11-01T19:35:36.068Z,7.03
2018-11-01T19:38:05.733Z,5.87
2018-11-01T19:40:35.244Z,4.87
2018-11-01T19:43:04.896Z,5.33
2018-11-01T19:45:35.445Z,5.40
2018-11-01T19:48:06.667Z,4.28
2018-11-01T19:50:37.641Z,3.62
2018-11-01T19:53:08.311Z,3.40
2018-11-01T19:55:40.975Z,4.33
2018-11-01T19:58:11.652Z,4.35
2018-11-01T20:00:42.629Z,3.72
2018-11-01T20:03:14.649Z,3.67
2018-11-01T20:05:46.760Z,3.40
2018-11-01T20:08:18.178Z,4.10
2018-11-01T20:10:48.894Z,5.10
2018-11-01T20:13:19.312Z,8.80
2018-11-01T20:15:49.522Z,6.00
2018-11-01T20:18:19.914Z,5.72
2018-11-01T20:20:50.139Z,5.12
2018-11-01T20:23:19.761Z,6.22
2018-11-01T20:25:51.524Z,4.97
2018-11-01T20:28:22.719Z,4.80
2018-11-01T20:30:52.932Z,3.92
2018-11-01T20:33:22.800Z,4.20
2018-11-01T20:35:52.816Z,3.90
2018-11-01T20:38:22.222Z,3.67
2018-11-01T20:40:51.709Z,4.17
2018-11-01T20:43:21.156Z,4.40
2018-11-01T20:45:50.601Z,4.42
2018-11-01T20:48:20.012Z,4.00
2018-11-01T20:50:50.393Z,4.85
2018-11-01T20:53:19.849Z,4.60
2018-11-01T20:55:49.668Z,3.90
2018-11-01T20:58:19.305Z,4.20
2018-11-01T21:00:48.963Z,3.35
2018-11-01T21:03:18.630Z,3.15
2018-11-01T21:05:48.681Z,2.83
2018-11-01T21:08:20.250Z,3.25
2018-11-01T21:10:51.515Z,3.25
2018-11-01T21:13:20.887Z,2.85
2018-11-01T21:15:50.459Z,3.47
2018-11-01T21:18:19.955Z,3.33
2018-11-01T21:20:49.373Z,2.83
2018-11-01T21:23:22.989Z,3.58
2018-11-01T21:25:52.671Z,3.15
2018-11-01T21:28:22.749Z,2.90
2018-11-01T21:30:52.997Z,3.10
2018-11-01T21:33:30.073Z,3.85
2018-11-01T21:36:02.831Z,2.85
2018-11-01T21:38:32.116Z,2.98
2018-11-01T21:41:01.566Z,4.72
2018-11-01T21:43:32.388Z,3.70
2018-11-01T21:46:05.193Z,3.22
2018-11-01T21:48:36.081Z,3.30
2018-11-01T21:51:06.520Z,3.62
2018-11-01T21:56:21.718Z,2.85
2018-11-01T21:58:51.172Z,3.58
2018-11-01T22:01:20.724Z,3.30
2018-11-01T22:06:41.075Z,4.65
2018-11-01T22:09:13.789Z,4.95
2018-11-01T22:11:44.715Z,4.60
2018-11-01T22:14:14.985Z,3.60
2018-11-01T22:16:45.661Z,4.10
2018-11-01T22:19:15.198Z,4.10
2018-11-01T22:21:44.599Z,4.40
2018-11-01T22:24:19.865Z,4.83
2018-11-01T22:26:49.393Z,5.80
2018-11-01T22:29:18.891Z,4.83
2018-11-01T22:31:48.352Z,5.17
2018-11-01T22:34:17.800Z,4.75
2018-11-01T22:36:47.324Z,4.83
2018-11-01T22:39:16.780Z,4.87
2018-11-01T22:41:46.180Z,4.53
2018-11-01T22:44:15.695Z,5.10
2018-11-01T22:46:45.232Z,4.17
2018-11-01T22:49:14.664Z,4.85
2018-11-01T22:51:44.052Z,5.62
2018-11-01T22:54:13.562Z,5.75
2018-11-01T22:56:42.992Z,5.80
2018-11-01T22:59:12.331Z,4.62
2018-11-01T23:01:41.748Z,5.33
2018-11-01T23:04:11.166Z,5.78
2018-11-01T23:06:40.591Z,5.15
2018-11-01T23:09:10.806Z,5.90
2018-11-01T23:11:41.206Z,5.08
2018-11-01T23:14:10.570Z,5.03
2018-11-01T23:16:40.094Z,4.80
2018-11-01T23:19:09.501Z,4.37
2018-11-01T23:21:38.926Z,5.80
2018-11-01T23:24:08.341Z,4.87
2018-11-01T23:26:37.731Z,4.72
2018-11-01T23:29:07.238Z,4.05
2018-11-01T23:31:36.808Z,3.45
2018-11-01T23:34:06.234Z,3.58
2018-11-01T23:36:41.058Z,3.05
2018-11-01T23:39:15.746Z,2.37
2018-11-01T23:41:50.445Z,2.83
2018-11-01T23:44:24.942Z,3.12
2018-11-01T23:46:59.478Z,2.80
2018-11-01T23:49:33.779Z,2.72
2018-11-01T23:52:08.425Z,3.00
2018-11-01T23:54:37.865Z,3.02
2018-11-01T23:57:07.323Z,2.98
2018-11-01T23:59:36.696Z,2.90
